createdAt,value
2023-03-26T00:01:19.309Z,23.95
2023-03-26T00:03:47.151Z,25.58
2023-03-26T00:06:16.825Z,24.35
2023-03-26T00:08:45.822Z,24.17
2023-03-26T00:11:15.589Z,26.00
2023-03-26T00:13:43.742Z,38.17
2023-03-26T00:16:19.703Z,26.27
2023-03-26T00:18:47.370Z,25.75
2023-03-26T00:21:16.799Z,27.77
2023-03-26T00:23:44.532Z,38.97
2023-03-26T00:26:11.430Z,35.78
2023-03-26T00:28:40.612Z,39.47
2023-03-26T00:31:10.737Z,44.27
2023-03-26T00:33:38.614Z,46.50
2023-03-26T00:36:10.102Z,45.95
2023-03-26T00:38:39.100Z,52.85
2023-03-26T00:41:17.696Z,55.30
2023-03-26T00:43:46.666Z,51.38
2023-03-26T00:46:13.974Z,52.22
2023-03-26T00:48:45.912Z,65.35
2023-03-26T00:51:15.839Z,72.03
2023-03-26T00:53:45.142Z,61.83
2023-03-26T00:56:12.562Z,68.80
2023-03-26T00:58:40.319Z,73.10
2023-03-26T01:01:10.895Z,71.70
2023-03-26T01:03:38.700Z,77.22
2023-03-26T01:06:08.712Z,83.32
2023-03-26T01:08:42.860Z,66.43
2023-03-26T01:11:17.121Z,80.70
2023-03-26T01:13:56.810Z,68.37
2023-03-26T01:16:37.327Z,79.93
2023-03-26T01:19:12.997Z,62.55
2023-03-26T01:21:40.053Z,70.40
2023-03-26T01:24:09.982Z,65.70
2023-03-26T01:27:12.081Z,71.55
2023-03-26T01:30:17.098Z,73.90
2023-03-26T01:32:55.615Z,64.10
2023-03-26T01:35:37.704Z,74.70
2023-03-26T01:38:18.070Z,60.90
2023-03-26T01:41:20.159Z,66.07
2023-03-26T01:43:50.308Z,71.28
2023-03-26T01:46:19.421Z,67.75
2023-03-26T01:48:47.677Z,72.82
2023-03-26T01:51:27.069Z,61.30
2023-03-26T01:53:54.580Z,49.93
2023-03-26T01:57:00.349Z,61.72
2023-03-26T02:00:07.005Z,51.75
2023-03-26T02:03:18.014Z,63.25
2023-03-26T02:06:11.360Z,57.78
2023-03-26T02:08:58.392Z,51.13
2023-03-26T02:11:34.750Z,46.88
2023-03-26T02:14:04.981Z,53.67
2023-03-26T02:16:31.956Z,46.72
2023-03-26T02:18:59.299Z,52.30
2023-03-26T02:21:27.979Z,47.92
2023-03-26T02:24:02.862Z,53.30
2023-03-26T02:26:34.332Z,47.30
2023-03-26T02:29:07.538Z,59.28
2023-03-26T02:31:36.984Z,52.38
2023-03-26T02:34:04.016Z,51.05
2023-03-26T02:36:35.874Z,49.47
2023-03-26T02:39:04.470Z,43.13
2023-03-26T02:41:35.162Z,48.93
2023-03-26T02:44:08.671Z,51.50
2023-03-26T02:46:54.140Z,47.65
2023-03-26T02:49:41.007Z,56.75
2023-03-26T02:52:08.304Z,48.22
2023-03-26T02:54:36.954Z,47.67
2023-03-26T02:57:21.029Z,56.00
2023-03-26T03:00:16.735Z,68.07
2023-03-26T03:02:50.249Z,46.67
2023-03-26T03:05:31.383Z,55.78
2023-03-26T03:08:22.960Z,53.97
2023-03-26T03:11:24.975Z,54.15
2023-03-26T03:13:53.210Z,51.55
2023-03-26T03:16:23.618Z,53.60
2023-03-26T03:18:54.825Z,53.40
2023-03-26T03:21:29.874Z,54.73
2023-03-26T03:24:00.085Z,50.10
2023-03-26T03:26:30.582Z,44.75
2023-03-26T03:29:02.616Z,54.90
2023-03-26T03:31:29.598Z,54.38
2023-03-26T03:34:01.934Z,49.65
2023-03-26T03:36:33.241Z,52.20
2023-03-26T03:39:09.421Z,51.90
2023-03-26T03:41:36.961Z,51.35
2023-03-26T03:44:06.515Z,50.15
2023-03-26T03:46:34.255Z,56.53
2023-03-26T03:49:01.481Z,53.97
2023-03-26T03:51:32.755Z,55.00
2023-03-26T03:54:03.116Z,48.70
2023-03-26T03:56:52.835Z,53.47
2023-03-26T03:59:47.903Z,55.55
2023-03-26T04:02:26.093Z,54.17
2023-03-26T04:05:00.516Z,44.22
2023-03-26T04:07:32.988Z,54.42
2023-03-26T04:10:07.423Z,51.55
2023-03-26T04:12:53.015Z,45.05
2023-03-26T04:15:30.846Z,58.35
2023-03-26T04:17:57.685Z,52.42
2023-03-26T04:20:24.595Z,57.13
2023-03-26T04:22:52.893Z,46.42
2023-03-26T04:25:21.496Z,45.10
2023-03-26T04:27:58.459Z,46.70
2023-03-26T04:30:48.892Z,44.92
2023-03-26T04:33:30.758Z,44.90
2023-03-26T04:36:02.831Z,50.08
2023-03-26T04:38:49.004Z,52.70
2023-03-26T04:41:18.368Z,46.08
2023-03-26T04:43:56.849Z,49.08
2023-03-26T04:46:46.102Z,52.30
2023-03-26T04:49:21.207Z,45.42
2023-03-26T04:51:48.306Z,45.53
2023-03-26T04:54:33.541Z,48.70
2023-03-26T04:57:13.542Z,41.60
2023-03-26T04:59:51.417Z,41.50
2023-03-26T05:02:18.919Z,47.10
2023-03-26T05:04:53.786Z,43.95
2023-03-26T05:07:24.151Z,48.28
2023-03-26T05:10:03.370Z,44.77
2023-03-26T05:12:49.143Z,40.00
2023-03-26T05:15:20.619Z,46.38
2023-03-26T05:18:02.464Z,41.38
2023-03-26T05:20:38.273Z,50.50
2023-03-26T05:23:08.086Z,42.25
2023-03-26T05:25:41.369Z,45.65
2023-03-26T05:28:19.266Z,41.95
2023-03-26T05:30:55.574Z,30.25
2023-03-26T05:33:24.583Z,40.42
2023-03-26T05:36:09.208Z,49.67
2023-03-26T05:38:37.061Z,32.08
2023-03-26T05:41:07.946Z,44.63
2023-03-26T05:43:37.177Z,49.20
2023-03-26T05:46:12.369Z,41.88
2023-03-26T05:48:39.698Z,53.08
2023-03-26T05:51:08.118Z,36.95
2023-03-26T05:53:35.885Z,40.03
2023-03-26T05:56:21.525Z,39.00
2023-03-26T05:59:03.675Z,34.55
2023-03-26T06:01:51.053Z,39.25
2023-03-26T06:04:42.589Z,41.03
2023-03-26T06:07:31.325Z,41.75
2023-03-26T06:10:09.627Z,40.65
2023-03-26T06:12:36.976Z,49.67
2023-03-26T06:15:05.471Z,44.53
2023-03-26T06:17:53.125Z,39.47
2023-03-26T06:20:34.893Z,37.17
2023-03-26T06:23:07.936Z,32.38
2023-03-26T06:25:47.832Z,32.42
2023-03-26T06:28:34.035Z,27.88
2023-03-26T06:31:19.232Z,37.97
2023-03-26T06:33:58.972Z,34.65
2023-03-26T06:36:25.890Z,36.50
2023-03-26T06:38:52.820Z,49.47
2023-03-26T06:41:19.803Z,38.97
2023-03-26T06:44:12.455Z,50.03
2023-03-26T06:46:58.122Z,34.30
2023-03-26T06:49:45.360Z,48.97
2023-03-26T06:52:33.502Z,46.88
2023-03-26T06:55:20.893Z,43.67
2023-03-26T06:58:02.767Z,44.30
2023-03-26T07:01:07.817Z,39.80
2023-03-26T07:03:53.085Z,37.90
2023-03-26T07:06:38.535Z,45.88
2023-03-26T07:09:26.429Z,45.92
2023-03-26T07:12:11.828Z,41.95
2023-03-26T07:15:09.463Z,36.33
2023-03-26T07:17:49.806Z,36.63
2023-03-26T07:20:23.479Z,33.55
2023-03-26T07:22:51.042Z,35.08
2023-03-26T07:25:43.901Z,32.03
2023-03-26T07:28:40.430Z,43.85
2023-03-26T07:32:16.673Z,34.45
2023-03-26T07:34:56.098Z,40.55
2023-03-26T07:37:42.311Z,33.85
2023-03-26T07:40:52.180Z,26.90
2023-03-26T07:43:51.325Z,22.88
2023-03-26T07:46:32.363Z,33.83
2023-03-26T07:49:31.666Z,28.40
2023-03-26T07:52:16.605Z,30.40
2023-03-26T07:55:05.134Z,22.80
2023-03-26T07:58:22.350Z,35.40
2023-03-26T08:01:41.518Z,33.80
2023-03-26T08:04:33.706Z,26.87
2023-03-26T08:07:27.003Z,30.42
2023-03-26T08:10:33.292Z,30.65
2023-03-26T08:13:56.905Z,27.77
2023-03-26T08:16:32.456Z,30.90
2023-03-26T08:19:08.236Z,23.05
2023-03-26T08:21:40.862Z,28.55
2023-03-26T08:24:14.253Z,36.27
2023-03-26T08:27:03.377Z,31.17
2023-03-26T08:29:39.407Z,28.25
2023-03-26T08:32:12.541Z,21.15
2023-03-26T08:34:39.457Z,23.70
2023-03-26T08:37:06.526Z,25.23
2023-03-26T08:39:33.481Z,22.90
2023-03-26T08:42:18.536Z,11.70
2023-03-26T08:44:48.877Z,29.35
2023-03-26T08:47:37.521Z,22.92
2023-03-26T08:50:31.064Z,23.13
2023-03-26T08:53:16.822Z,28.38
2023-03-26T08:56:07.521Z,25.92
2023-03-26T08:59:08.678Z,20.80
2023-03-26T09:01:45.964Z,29.25
2023-03-26T09:04:28.067Z,32.15
2023-03-26T09:06:57.662Z,20.08
2023-03-26T09:10:12.108Z,23.50
2023-03-26T09:12:49.675Z,25.00
2023-03-26T09:15:45.398Z,20.33
2023-03-26T09:18:27.535Z,12.63
2023-03-26T09:21:22.426Z,18.13
2023-03-26T09:24:08.088Z,21.75
2023-03-26T09:26:51.491Z,17.60
2023-03-26T09:29:48.991Z,15.43
2023-03-26T09:32:31.247Z,21.50
2023-03-26T09:35:19.870Z,24.10
2023-03-26T09:37:58.901Z,21.50
2023-03-26T09:41:05.297Z,21.13
2023-03-26T09:43:47.076Z,8.32
2023-03-26T09:46:28.217Z,17.48
2023-03-26T09:48:57.782Z,10.68
2023-03-26T09:51:43.907Z,15.90
2023-03-26T09:54:23.603Z,9.57
2023-03-26T09:56:58.516Z,12.75
2023-03-26T09:59:57.070Z,14.85
2023-03-26T10:02:47.588Z,11.65
2023-03-26T10:05:38.988Z,11.82
2023-03-26T10:08:36.032Z,12.82
2023-03-26T10:11:10.060Z,14.23
2023-03-26T10:14:18.461Z,17.23
2023-03-26T10:17:12.698Z,10.25
2023-03-26T10:20:09.183Z,10.98
2023-03-26T10:22:43.738Z,11.55
2023-03-26T10:25:33.112Z,8.65
2023-03-26T10:28:19.052Z,9.93
2023-03-26T10:30:56.997Z,9.88
2023-03-26T10:33:45.527Z,14.80
2023-03-26T10:36:29.951Z,17.17
2023-03-26T10:39:37.837Z,14.82
2023-03-26T10:42:15.482Z,11.45
2023-03-26T10:45:05.186Z,7.97
2023-03-26T10:47:57.590Z,18.48
2023-03-26T10:50:27.682Z,14.70
2023-03-26T10:53:23.713Z,12.93
2023-03-26T10:55:57.784Z,11.20
2023-03-26T10:58:29.296Z,9.45
2023-03-26T11:01:36.273Z,14.40
2023-03-26T11:04:21.039Z,16.88
2023-03-26T11:07:16.647Z,11.95
2023-03-26T11:09:55.234Z,19.25
2023-03-26T11:12:52.947Z,21.33
2023-03-26T11:15:39.378Z,23.80
2023-03-26T11:18:24.805Z,14.98
2023-03-26T11:21:37.101Z,10.98
2023-03-26T11:24:32.219Z,12.52
2023-03-26T11:27:19.070Z,11.25
2023-03-26T11:30:03.327Z,9.80
2023-03-26T11:32:45.940Z,14.50
2023-03-26T11:35:40.525Z,9.97
2023-03-26T11:38:31.825Z,11.20
2023-03-26T11:41:01.923Z,17.77
2023-03-26T11:44:00.227Z,13.82
2023-03-26T11:46:33.246Z,11.35
2023-03-26T11:49:06.673Z,22.77
2023-03-26T11:51:36.293Z,16.23
2023-03-26T11:54:05.336Z,25.95
2023-03-26T11:56:41.157Z,26.65
2023-03-26T11:59:48.915Z,20.17
2023-03-26T12:02:39.973Z,18.35
2023-03-26T12:05:29.484Z,22.50
2023-03-26T12:07:58.669Z,14.00
2023-03-26T12:10:31.009Z,22.25
2023-03-26T12:13:04.505Z,21.35
2023-03-26T12:15:32.277Z,19.63
2023-03-26T12:18:20.848Z,16.35
2023-03-26T12:20:48.234Z,17.08
2023-03-26T12:23:35.731Z,18.45
2023-03-26T12:26:17.374Z,15.63
2023-03-26T12:28:46.674Z,13.63
2023-03-26T12:31:19.526Z,15.13
2023-03-26T12:34:13.402Z,17.97
2023-03-26T12:36:40.583Z,18.17
2023-03-26T12:40:10.011Z,18.25
2023-03-26T12:44:47.535Z,15.80
2023-03-26T12:45:23.752Z,16.63
2023-03-26T12:48:00.104Z,13.98
2023-03-26T12:50:40.838Z,9.35
2023-03-26T12:53:40.044Z,14.13
2023-03-26T12:56:27.485Z,16.65
2023-03-26T12:59:15.642Z,14.55
2023-03-26T13:01:58.594Z,17.73
2023-03-26T13:04:55.280Z,20.27
2023-03-26T13:07:34.458Z,17.95
2023-03-26T13:10:38.766Z,20.02
2023-03-26T13:13:11.612Z,17.75
2023-03-26T13:15:49.631Z,15.90
2023-03-26T13:18:44.377Z,18.98
2023-03-26T13:21:37.994Z,19.00
2023-03-26T13:24:07.708Z,18.10
2023-03-26T13:27:28.257Z,16.92
2023-03-26T13:30:15.025Z,19.70
2023-03-26T13:33:20.911Z,17.10
2023-03-26T13:36:21.783Z,11.05
2023-03-26T13:38:58.767Z,20.65
2023-03-26T13:41:32.630Z,15.63
2023-03-26T13:44:14.360Z,18.15
2023-03-26T13:46:46.254Z,14.27
2023-03-26T13:49:22.932Z,16.27
2023-03-26T13:52:05.816Z,12.23
2023-03-26T13:54:56.493Z,10.85
2023-03-26T13:57:34.394Z,11.00
2023-03-26T14:00:12.565Z,11.30
2023-03-26T14:02:41.375Z,6.65
2023-03-26T14:05:38.416Z,15.13
2023-03-26T14:08:31.669Z,6.45
2023-03-26T14:11:10.890Z,13.40
2023-03-26T14:13:54.634Z,15.77
2023-03-26T14:16:25.753Z,6.53
2023-03-26T14:19:15.338Z,9.65
2023-03-26T14:21:54.686Z,8.85
2023-03-26T14:24:45.614Z,10.48
2023-03-26T14:27:34.198Z,8.18
2023-03-26T14:30:39.207Z,15.35
2023-03-26T14:33:34.229Z,6.45
2023-03-26T14:36:18.453Z,12.30
2023-03-26T14:38:45.306Z,10.50
2023-03-26T14:41:51.538Z,17.75
2023-03-26T14:44:48.430Z,10.27
2023-03-26T14:47:21.828Z,9.15
2023-03-26T14:50:31.533Z,14.20
2023-03-26T14:53:04.422Z,11.88
2023-03-26T14:55:49.851Z,11.68
2023-03-26T14:58:50.449Z,7.50
2023-03-26T15:01:26.703Z,4.70
2023-03-26T15:04:12.395Z,13.90
2023-03-26T15:07:18.748Z,17.00
2023-03-26T15:10:08.735Z,9.55
2023-03-26T15:12:47.577Z,6.57
2023-03-26T15:15:29.672Z,4.72
2023-03-26T15:18:14.979Z,9.52
2023-03-26T15:21:19.304Z,13.27
2023-03-26T15:24:29.273Z,9.97
2023-03-26T15:27:16.580Z,8.43
2023-03-26T15:30:24.989Z,8.03
2023-03-26T15:33:24.807Z,10.35
2023-03-26T15:36:10.421Z,15.43
2023-03-26T15:38:40.223Z,8.85
2023-03-26T15:41:32.183Z,6.83
2023-03-26T15:46:38.296Z,15.20
2023-03-26T15:49:24.163Z,11.93
2023-03-26T15:52:26.928Z,8.65
2023-03-26T15:55:04.373Z,12.60
2023-03-26T15:57:47.269Z,9.03
2023-03-26T16:00:22.854Z,11.02
2023-03-26T16:03:17.961Z,14.38
2023-03-26T16:06:20.718Z,4.73
2023-03-26T16:09:07.952Z,9.05
2023-03-26T16:12:03.660Z,8.60
2023-03-26T16:14:36.463Z,10.02
2023-03-26T16:17:13.108Z,7.90
2023-03-26T16:19:49.397Z,13.75
2023-03-26T16:22:56.386Z,11.85
2023-03-26T16:25:57.424Z,11.70
2023-03-26T16:28:35.582Z,11.60
2023-03-26T16:31:10.686Z,11.65
2023-03-26T16:34:09.273Z,13.35
2023-03-26T16:36:38.937Z,10.50
2023-03-26T16:39:05.898Z,9.73
2023-03-26T16:41:38.886Z,10.02
2023-03-26T16:44:19.307Z,6.82
2023-03-26T16:47:37.512Z,8.93
2023-03-26T16:50:29.920Z,9.75
2023-03-26T16:53:24.722Z,7.83
2023-03-26T16:56:02.585Z,9.45
2023-03-26T16:58:49.951Z,8.98
2023-03-26T17:01:43.016Z,9.15
2023-03-26T17:04:24.881Z,6.05
2023-03-26T17:07:25.153Z,11.85
2023-03-26T17:10:04.060Z,7.00
2023-03-26T17:12:34.050Z,6.47
2023-03-26T17:15:07.464Z,5.05
2023-03-26T17:17:44.158Z,5.13
2023-03-26T17:20:37.107Z,11.45
2023-03-26T17:23:29.332Z,9.88
2023-03-26T17:26:11.396Z,10.02
2023-03-26T17:29:04.885Z,8.25
2023-03-26T17:32:00.900Z,6.03
2023-03-26T17:34:49.149Z,8.75
2023-03-26T17:37:22.020Z,7.90
2023-03-26T17:40:01.543Z,9.73
2023-03-26T17:42:32.704Z,11.52
2023-03-26T17:45:24.291Z,7.40
2023-03-26T17:48:10.384Z,3.67
2023-03-26T17:51:00.279Z,5.63
2023-03-26T17:53:33.061Z,10.75
2023-03-26T17:56:06.518Z,6.38
2023-03-26T17:58:42.787Z,7.45
2023-03-26T18:01:32.205Z,11.98
2023-03-26T18:04:02.848Z,9.25
2023-03-26T18:06:54.304Z,18.42
2023-03-26T18:09:30.250Z,11.13
2023-03-26T18:12:23.857Z,9.27
2023-03-26T18:15:16.562Z,10.07
2023-03-26T18:17:46.746Z,6.70
2023-03-26T18:20:23.300Z,8.85
2023-03-26T18:22:51.597Z,5.88
2023-03-26T18:25:32.263Z,8.95
2023-03-26T18:28:02.043Z,6.40
2023-03-26T18:30:29.824Z,11.80
2023-03-26T18:33:12.889Z,5.32
2023-03-26T18:35:51.832Z,12.82
2023-03-26T18:38:34.951Z,7.23
2023-03-26T18:41:05.914Z,5.47
2023-03-26T18:43:35.557Z,19.17
2023-03-26T18:46:13.833Z,10.15
2023-03-26T18:48:41.431Z,8.27
2023-03-26T18:51:08.626Z,9.18
2023-03-26T18:53:40.058Z,7.28
2023-03-26T18:56:36.719Z,7.72
2023-03-26T18:59:29.049Z,6.38
2023-03-26T19:01:57.747Z,5.32
2023-03-26T19:04:26.808Z,8.60
2023-03-26T19:06:55.867Z,11.02
2023-03-26T19:09:31.594Z,9.85
2023-03-26T19:12:06.983Z,7.35
2023-03-26T19:14:37.147Z,8.30
2023-03-26T19:17:06.096Z,9.20
2023-03-26T19:19:36.877Z,11.93
2023-03-26T19:22:11.394Z,9.48
2023-03-26T19:24:40.377Z,10.02
2023-03-26T19:27:07.499Z,9.70
2023-03-26T19:29:36.277Z,7.97
2023-03-26T19:32:05.584Z,12.82
2023-03-26T19:34:39.474Z,6.05
2023-03-26T19:37:20.598Z,6.07
2023-03-26T19:39:53.339Z,7.80
2023-03-26T19:42:27.355Z,10.88
2023-03-26T19:45:20.757Z,8.02
2023-03-26T19:47:59.976Z,7.07
2023-03-26T19:50:36.667Z,6.20
2023-03-26T19:53:19.054Z,8.77
2023-03-26T19:55:59.505Z,12.52
2023-03-26T19:58:27.429Z,10.60
2023-03-26T20:00:56.272Z,7.78
2023-03-26T20:03:28.461Z,7.53
2023-03-26T20:05:55.579Z,10.80
2023-03-26T20:08:27.015Z,7.68
2023-03-26T20:10:56.605Z,5.82
2023-03-26T20:13:23.661Z,6.38
2023-03-26T20:16:35.794Z,8.20
2023-03-26T20:19:02.713Z,6.25
2023-03-26T20:21:32.279Z,8.07
2023-03-26T20:23:59.276Z,8.43
2023-03-26T20:26:26.460Z,7.47
2023-03-26T20:28:53.850Z,7.18
2023-03-26T20:31:26.370Z,9.00
2023-03-26T20:33:54.170Z,10.73
2023-03-26T20:36:33.137Z,7.65
2023-03-26T20:39:06.224Z,7.35
2023-03-26T20:41:34.496Z,6.37
2023-03-26T20:44:03.727Z,5.57
2023-03-26T20:46:31.903Z,8.00
2023-03-26T20:48:59.720Z,5.57
2023-03-26T20:51:28.561Z,7.38
2023-03-26T20:53:56.540Z,7.40
2023-03-26T20:56:23.518Z,3.75
2023-03-26T20:59:00.432Z,8.80
2023-03-26T21:01:35.134Z,5.87
2023-03-26T21:04:04.307Z,6.80
2023-03-26T21:06:31.662Z,8.85
2023-03-26T21:08:58.902Z,9.05
2023-03-26T21:11:34.913Z,7.83
2023-03-26T21:14:09.463Z,7.97
2023-03-26T21:16:37.297Z,12.60
2023-03-26T21:19:04.464Z,6.43
2023-03-26T21:21:53.617Z,12.18
2023-03-26T21:24:49.501Z,7.15
2023-03-26T21:27:41.404Z,8.23
2023-03-26T21:30:14.455Z,5.60
2023-03-26T21:32:42.728Z,5.68
2023-03-26T21:35:10.764Z,6.28
2023-03-26T21:37:38.292Z,12.45
2023-03-26T21:40:16.663Z,7.88
2023-03-26T21:42:45.449Z,8.07
2023-03-26T21:45:13.533Z,4.85
2023-03-26T21:47:41.933Z,8.15
2023-03-26T21:50:10.041Z,6.38
2023-03-26T21:52:37.286Z,5.95
2023-03-26T21:55:06.558Z,8.27
2023-03-26T21:57:57.952Z,6.72
2023-03-26T22:00:40.812Z,7.25
2023-03-26T22:03:18.456Z,9.87
2023-03-26T22:06:07.027Z,8.18
2023-03-26T22:08:39.013Z,8.20
2023-03-26T22:11:07.565Z,6.40
2023-03-26T22:13:38.835Z,7.60
2023-03-26T22:16:07.753Z,7.60
2023-03-26T22:18:35.176Z,8.95
2023-03-26T22:21:02.456Z,4.28
2023-03-26T22:23:36.201Z,2.75
2023-03-26T22:26:05.208Z,10.10
2023-03-26T22:28:32.315Z,7.20
2023-03-26T22:30:59.640Z,7.65
2023-03-26T22:33:27.121Z,8.52
2023-03-26T22:35:56.121Z,9.45
2023-03-26T22:38:23.053Z,9.53
2023-03-26T22:40:57.421Z,11.35
2023-03-26T22:43:24.682Z,6.53
2023-03-26T22:45:53.709Z,10.40
2023-03-26T22:48:22.453Z,10.38
2023-03-26T22:50:58.520Z,10.68
2023-03-26T22:53:25.594Z,7.25
2023-03-26T22:55:52.390Z,8.23
2023-03-26T22:58:19.277Z,8.98
2023-03-26T23:00:47.437Z,10.05
2023-03-26T23:03:14.311Z,12.20
2023-03-26T23:05:41.215Z,7.10
2023-03-26T23:08:08.041Z,9.98
2023-03-26T23:10:34.791Z,8.70
2023-03-26T23:13:01.773Z,4.78
2023-03-26T23:15:30.392Z,10.52
2023-03-26T23:17:59.315Z,9.53
2023-03-26T23:20:27.615Z,7.40
2023-03-26T23:22:54.907Z,7.22
2023-03-26T23:25:21.795Z,7.90
2023-03-26T23:27:48.579Z,7.60
2023-03-26T23:30:16.791Z,5.93
2023-03-26T23:32:44.008Z,4.90
2023-03-26T23:35:11.268Z,9.30
2023-03-26T23:37:38.291Z,8.60
2023-03-26T23:40:10.318Z,4.45
2023-03-26T23:42:37.984Z,5.63
2023-03-26T23:45:05.961Z,6.50
2023-03-26T23:47:34.324Z,8.98
2023-03-26T23:50:02.550Z,8.63
2023-03-26T23:52:30.555Z,9.77
2023-03-26T23:54:59.758Z,7.05
2023-03-26T23:57:27.234Z,8.32
2023-03-26T23:59:54.711Z,9.07
